createdAt,value
2022-10-26T00:01:54.752Z,11.90
2022-10-26T00:04:23.583Z,11.89
2022-10-26T00:06:52.251Z,11.88
2022-10-26T00:09:20.929Z,11.86
2022-10-26T00:11:49.653Z,11.83
2022-10-26T00:14:18.532Z,11.81
2022-10-26T00:16:47.531Z,11.79
2022-10-26T00:19:16.262Z,11.77
2022-10-26T00:21:45.016Z,11.76
2022-10-26T00:24:14.696Z,11.74
2022-10-26T00:26:43.453Z,11.73
2022-10-26T00:29:13.013Z,11.71
2022-10-26T00:31:41.787Z,11.69
2022-10-26T00:34:12.248Z,11.66
2022-10-26T00:36:41.123Z,11.62
2022-10-26T00:39:13.637Z,11.58
2022-10-26T00:41:42.410Z,11.53
2022-10-26T00:44:48.310Z,11.48
2022-10-26T00:47:41.053Z,11.41
2022-10-26T00:50:19.172Z,11.34
2022-10-26T00:52:51.020Z,11.31
2022-10-26T00:55:27.213Z,11.27
2022-10-26T00:57:56.022Z,11.23
2022-10-26T01:00:24.748Z,11.19
2022-10-26T01:02:57.483Z,11.16
2022-10-26T01:05:27.341Z,11.14
2022-10-26T01:07:56.695Z,11.13
2022-10-26T01:10:26.376Z,11.12
2022-10-26T01:12:57.717Z,11.11
2022-10-26T01:15:52.112Z,11.10
2022-10-26T01:18:32.221Z,11.08
2022-10-26T01:21:31.133Z,11.06
2022-10-26T01:24:23.945Z,11.01
2022-10-26T01:27:24.140Z,10.97
2022-10-26T01:30:28.521Z,10.92
2022-10-26T01:33:37.338Z,10.87
2022-10-26T01:36:28.157Z,10.84
2022-10-26T01:39:36.404Z,10.85
2022-10-26T01:42:09.186Z,10.85
2022-10-26T01:44:49.712Z,10.87
2022-10-26T01:47:20.896Z,10.88
2022-10-26T01:49:59.163Z,10.88
2022-10-26T01:52:28.708Z,10.87
2022-10-26T01:55:07.230Z,10.87
2022-10-26T01:57:38.470Z,10.86
2022-10-26T02:00:12.802Z,10.84
2022-10-26T02:03:04.623Z,10.82
2022-10-26T02:06:06.004Z,10.79
2022-10-26T02:08:53.177Z,10.75
2022-10-26T02:11:41.867Z,10.73
2022-10-26T02:14:37.633Z,10.71
2022-10-26T02:17:16.579Z,10.70
2022-10-26T02:19:55.033Z,10.69
2022-10-26T02:22:45.439Z,10.66
2022-10-26T02:25:30.929Z,10.60
2022-10-26T02:28:08.013Z,10.56
2022-10-26T02:30:39.034Z,10.53
2022-10-26T02:33:12.310Z,10.52
2022-10-26T02:35:47.460Z,10.50
2022-10-26T02:38:20.362Z,10.49
2022-10-26T02:40:51.920Z,10.47
2022-10-26T02:43:23.670Z,10.43
2022-10-26T02:45:59.823Z,10.38
2022-10-26T02:48:28.681Z,10.33
2022-10-26T02:51:12.837Z,10.27
2022-10-26T02:53:54.116Z,10.25
2022-10-26T02:56:31.271Z,10.22
2022-10-26T02:59:06.049Z,10.18
2022-10-26T03:01:35.857Z,10.15
2022-10-26T03:04:05.079Z,10.12
2022-10-26T03:06:33.875Z,10.12
2022-10-26T03:09:02.829Z,10.09
2022-10-26T03:11:31.541Z,10.05
2022-10-26T03:14:00.293Z,10.02
2022-10-26T03:16:29.087Z,10.00
2022-10-26T03:18:57.845Z,9.96
2022-10-26T03:21:26.960Z,9.93
2022-10-26T03:23:55.684Z,9.90
2022-10-26T03:26:24.495Z,9.89
2022-10-26T03:28:53.240Z,9.86
2022-10-26T03:31:21.982Z,9.84
2022-10-26T03:33:50.735Z,9.83
2022-10-26T03:36:19.435Z,9.81
2022-10-26T03:38:48.080Z,9.78
2022-10-26T03:41:16.831Z,9.73
2022-10-26T03:43:45.754Z,9.69
2022-10-26T03:46:15.059Z,9.66
2022-10-26T03:48:43.954Z,9.62
2022-10-26T03:51:12.736Z,9.57
2022-10-26T03:53:41.419Z,9.56
2022-10-26T03:56:10.136Z,9.53
2022-10-26T03:58:38.927Z,9.52
2022-10-26T04:01:07.621Z,9.51
2022-10-26T04:03:36.348Z,9.47
2022-10-26T04:06:05.764Z,9.36
2022-10-26T04:08:34.523Z,9.25
2022-10-26T04:11:04.632Z,9.20
2022-10-26T04:13:33.865Z,9.17
2022-10-26T04:16:02.601Z,9.14
2022-10-26T04:18:31.347Z,9.14
2022-10-26T04:21:03.376Z,9.15
2022-10-26T04:23:31.982Z,9.14
2022-10-26T04:26:00.764Z,9.02
2022-10-26T04:28:29.597Z,8.96
2022-10-26T04:30:58.315Z,8.88
2022-10-26T04:33:27.149Z,8.80
2022-10-26T04:36:01.367Z,8.74
2022-10-26T04:38:30.066Z,8.72
2022-10-26T04:40:58.771Z,8.72
2022-10-26T04:43:27.467Z,8.74
2022-10-26T04:45:57.974Z,8.77
2022-10-26T04:48:26.704Z,8.81
2022-10-26T04:50:59.893Z,8.84
2022-10-26T04:53:28.799Z,8.85
2022-10-26T04:56:01.835Z,8.84
2022-10-26T04:58:31.022Z,8.77
2022-10-26T05:01:02.583Z,8.72
2022-10-26T05:03:31.472Z,8.70
2022-10-26T05:06:00.426Z,8.68
2022-10-26T05:08:30.179Z,8.65
2022-10-26T05:10:58.925Z,8.60
2022-10-26T05:16:01.380Z,8.53
2022-10-26T05:18:30.106Z,8.53
2022-10-26T05:20:58.855Z,8.45
2022-10-26T05:23:27.712Z,8.35
2022-10-26T05:25:57.007Z,8.29
2022-10-26T05:28:25.793Z,8.25
2022-10-26T05:30:54.510Z,8.22
2022-10-26T05:33:23.204Z,8.18
2022-10-26T05:35:55.571Z,8.14
2022-10-26T05:38:24.383Z,8.06
2022-10-26T05:40:54.815Z,7.97
2022-10-26T05:43:24.451Z,7.91
2022-10-26T05:45:54.560Z,7.89
2022-10-26T05:48:23.463Z,7.89
2022-10-26T05:50:53.760Z,7.89
2022-10-26T05:53:22.724Z,7.91
2022-10-26T05:55:51.931Z,7.94
2022-10-26T05:58:21.052Z,7.95
2022-10-26T06:01:35.469Z,7.93
2022-10-26T06:04:30.560Z,7.92
2022-10-26T06:06:59.677Z,7.95
2022-10-26T06:09:28.949Z,7.95
2022-10-26T06:11:58.227Z,7.89
2022-10-26T06:14:27.600Z,7.86
2022-10-26T06:22:35.326Z,7.86
2022-10-26T06:25:36.636Z,7.88
2022-10-26T06:28:36.126Z,7.91
2022-10-26T06:31:05.226Z,7.95
2022-10-26T06:33:34.553Z,8.00
2022-10-26T06:36:23.318Z,8.06
2022-10-26T06:39:04.525Z,8.12
2022-10-26T06:41:36.286Z,8.18
2022-10-26T06:44:06.372Z,8.22
2022-10-26T06:46:56.926Z,8.24
2022-10-26T06:50:02.074Z,8.28
2022-10-26T06:52:44.460Z,8.34
2022-10-26T06:55:17.632Z,8.39
2022-10-26T06:57:46.695Z,8.46
2022-10-26T07:00:26.038Z,8.55
2022-10-26T07:02:55.023Z,8.59
2022-10-26T07:05:24.121Z,8.65
2022-10-26T07:07:53.259Z,8.70
2022-10-26T07:10:22.496Z,8.76
2022-10-26T07:12:51.383Z,8.85
2022-10-26T07:15:20.252Z,8.95
2022-10-26T07:17:50.266Z,9.05
2022-10-26T07:20:21.536Z,9.13
2022-10-26T07:22:57.232Z,9.24
2022-10-26T07:25:27.004Z,9.38
2022-10-26T07:28:00.276Z,9.53
2022-10-26T07:30:30.509Z,9.69
2022-10-26T07:33:20.317Z,9.85
2022-10-26T07:35:49.203Z,10.03
2022-10-26T07:38:18.096Z,10.21
2022-10-26T07:40:46.920Z,10.39
2022-10-26T07:43:16.423Z,10.59
2022-10-26T07:45:45.358Z,10.78
2022-10-26T07:48:14.341Z,10.98
2022-10-26T07:50:43.159Z,11.23
2022-10-26T07:53:12.011Z,11.55
2022-10-26T07:55:40.754Z,11.89
2022-10-26T07:58:09.471Z,12.14
2022-10-26T08:00:38.208Z,12.34
2022-10-26T08:03:06.990Z,12.59
2022-10-26T08:05:36.046Z,12.82
2022-10-26T08:08:05.709Z,12.99
2022-10-26T08:10:34.732Z,13.16
2022-10-26T08:13:03.556Z,13.33
2022-10-26T08:15:32.367Z,13.49
2022-10-26T08:18:01.178Z,13.61
2022-10-26T08:20:30.042Z,13.67
2022-10-26T08:23:01.447Z,13.75
2022-10-26T08:25:30.438Z,13.83
2022-10-26T08:28:03.594Z,13.91
2022-10-26T08:30:33.069Z,14.02
2022-10-26T08:33:05.453Z,14.13
2022-10-26T08:35:34.891Z,14.25
2022-10-26T08:38:03.632Z,14.37
2022-10-26T08:40:37.649Z,14.46
2022-10-26T08:43:31.825Z,14.52
2022-10-26T08:46:33.138Z,14.54
2022-10-26T08:49:28.268Z,14.53
2022-10-26T08:52:02.465Z,14.52
2022-10-26T08:54:40.869Z,14.54
2022-10-26T08:57:21.369Z,14.59
2022-10-26T08:59:59.456Z,14.68
2022-10-26T09:02:28.391Z,14.77
2022-10-26T09:04:59.614Z,14.88
2022-10-26T09:07:57.347Z,14.94
2022-10-26T09:10:50.990Z,14.91
2022-10-26T09:13:42.266Z,14.93
2022-10-26T09:16:46.152Z,14.99
2022-10-26T09:19:58.589Z,15.01
2022-10-26T09:22:45.819Z,15.03
2022-10-26T09:25:23.744Z,15.09
2022-10-26T09:28:00.755Z,15.20
2022-10-26T09:30:30.502Z,15.34
2022-10-26T09:33:22.570Z,15.47
2022-10-26T09:36:01.545Z,15.62
2022-10-26T09:38:41.252Z,15.76
2022-10-26T09:41:41.137Z,15.89
2022-10-26T09:44:31.612Z,16.00
2022-10-26T09:47:21.614Z,16.14
2022-10-26T09:50:06.731Z,16.32
2022-10-26T09:52:35.494Z,16.51
2022-10-26T09:55:04.566Z,16.71
2022-10-26T09:57:33.686Z,16.88
2022-10-26T10:00:02.629Z,17.05
2022-10-26T10:02:45.304Z,17.20
2022-10-26T10:05:51.789Z,17.40
2022-10-26T10:08:27.538Z,17.64
2022-10-26T10:11:11.225Z,17.92
2022-10-26T10:13:46.325Z,18.22
2022-10-26T10:16:24.054Z,18.41
2022-10-26T10:18:59.291Z,18.62
2022-10-26T10:21:38.526Z,18.91
2022-10-26T10:24:53.400Z,19.20
2022-10-26T10:27:23.597Z,19.47
2022-10-26T10:30:04.186Z,19.62
2022-10-26T10:32:37.192Z,19.68
2022-10-26T10:35:25.769Z,19.72
2022-10-26T10:37:54.529Z,19.99
2022-10-26T10:40:27.564Z,20.12
2022-10-26T10:43:14.406Z,20.19
2022-10-26T10:45:49.260Z,20.30
2022-10-26T10:48:25.258Z,20.40
2022-10-26T10:51:12.632Z,20.38
2022-10-26T10:53:51.972Z,20.33
2022-10-26T10:56:42.323Z,20.32
2022-10-26T11:00:04.115Z,20.17
2022-10-26T11:03:08.847Z,19.76
2022-10-26T11:05:51.458Z,19.52
2022-10-26T11:08:38.078Z,19.38
2022-10-26T11:11:28.872Z,19.24
2022-10-26T11:14:20.267Z,19.10
2022-10-26T11:17:12.732Z,18.87
2022-10-26T11:19:54.826Z,18.69
2022-10-26T11:22:42.038Z,18.57
2022-10-26T11:25:22.789Z,18.44
2022-10-26T11:28:11.145Z,18.30
2022-10-26T11:30:49.619Z,18.17
2022-10-26T11:33:36.740Z,18.08
2022-10-26T11:36:12.423Z,18.02
2022-10-26T11:38:57.174Z,18.01
2022-10-26T11:41:37.378Z,17.95
2022-10-26T11:44:17.800Z,17.88
2022-10-26T11:47:01.414Z,17.82
2022-10-26T11:49:42.330Z,17.71
2022-10-26T11:52:29.888Z,17.62
2022-10-26T11:55:04.828Z,17.51
2022-10-26T11:57:36.860Z,17.47
2022-10-26T12:00:20.770Z,17.44
2022-10-26T12:03:12.158Z,17.30
2022-10-26T12:05:40.969Z,17.28
2022-10-26T12:08:24.339Z,17.30
2022-10-26T12:11:13.869Z,17.30
2022-10-26T12:14:07.388Z,17.26
2022-10-26T12:16:51.516Z,17.21
2022-10-26T12:19:54.552Z,17.20
2022-10-26T12:22:32.413Z,17.16
2022-10-26T12:25:15.463Z,17.16
2022-10-26T12:27:44.416Z,17.16
2022-10-26T12:30:19.050Z,17.17
2022-10-26T12:32:48.953Z,17.18
2022-10-26T12:35:40.728Z,17.17
2022-10-26T12:38:21.671Z,17.14
2022-10-26T12:41:21.023Z,17.13
2022-10-26T12:43:50.033Z,17.10
2022-10-26T12:46:18.964Z,17.11
2022-10-26T12:48:49.955Z,17.11
2022-10-26T12:51:21.852Z,17.11
2022-10-26T12:54:02.975Z,17.11
2022-10-26T12:56:56.431Z,17.11
2022-10-26T12:59:50.305Z,17.08
2022-10-26T13:02:59.763Z,17.04
2022-10-26T13:06:24.346Z,17.00
2022-10-26T13:08:58.833Z,16.99
2022-10-26T13:11:42.884Z,17.01
2022-10-26T13:14:31.529Z,17.02
2022-10-26T13:17:02.385Z,17.02
2022-10-26T13:19:38.180Z,17.02
2022-10-26T13:22:20.243Z,17.00
2022-10-26T13:24:55.508Z,16.99
2022-10-26T13:27:41.927Z,17.01
2022-10-26T13:30:22.825Z,17.02
2022-10-26T13:32:56.570Z,17.04
2022-10-26T13:35:26.818Z,17.04
2022-10-26T13:37:57.490Z,17.04
2022-10-26T13:40:30.380Z,17.03
2022-10-26T13:43:04.979Z,16.99
2022-10-26T13:45:58.782Z,16.96
2022-10-26T13:48:39.435Z,16.91
2022-10-26T13:51:23.924Z,16.89
2022-10-26T13:54:00.511Z,16.87
2022-10-26T13:56:48.939Z,16.88
2022-10-26T14:02:15.928Z,16.86
2022-10-26T14:04:53.020Z,16.82
2022-10-26T14:07:26.923Z,16.80
2022-10-26T14:09:58.203Z,16.79
2022-10-26T14:12:31.122Z,16.78
2022-10-26T14:15:08.656Z,16.77
2022-10-26T14:17:37.409Z,16.74
2022-10-26T14:20:06.841Z,16.73
2022-10-26T14:22:35.651Z,16.70
2022-10-26T14:25:04.700Z,16.66
2022-10-26T14:27:39.502Z,16.61
2022-10-26T14:30:24.445Z,16.57
2022-10-26T14:32:53.957Z,16.52
2022-10-26T14:35:28.288Z,16.51
2022-10-26T14:38:22.539Z,16.51
2022-10-26T14:40:52.464Z,16.49
2022-10-26T14:43:24.645Z,16.50
2022-10-26T14:45:54.608Z,16.49
2022-10-26T14:48:32.501Z,16.48
2022-10-26T14:51:17.525Z,16.46
2022-10-26T14:53:53.050Z,16.42
2022-10-26T14:56:36.189Z,16.39
2022-10-26T14:59:32.194Z,16.36
2022-10-26T15:02:21.296Z,16.30
2022-10-26T15:05:20.165Z,16.26
2022-10-26T15:07:49.667Z,16.21
2022-10-26T15:10:37.253Z,16.20
2022-10-26T15:13:34.595Z,16.11
2022-10-26T15:16:15.828Z,16.03
2022-10-26T15:18:52.332Z,15.95
2022-10-26T15:21:43.619Z,15.86
2022-10-26T15:24:32.023Z,15.78
2022-10-26T15:27:09.431Z,15.63
2022-10-26T15:29:52.072Z,15.58
2022-10-26T15:32:32.717Z,15.56
2022-10-26T15:35:12.100Z,15.53
2022-10-26T15:37:43.534Z,15.48
2022-10-26T15:40:14.810Z,15.43
2022-10-26T15:42:53.687Z,15.38
2022-10-26T15:45:54.743Z,15.28
2022-10-26T15:48:38.007Z,15.18
2022-10-26T15:51:38.309Z,15.07
2022-10-26T15:57:52.738Z,14.86
2022-10-26T16:00:39.815Z,14.80
2022-10-26T16:06:34.508Z,14.71
2022-10-26T16:10:19.646Z,14.63
2022-10-26T16:14:33.339Z,14.54
2022-10-26T16:20:54.364Z,14.36
2022-10-26T16:47:07.054Z,13.57
2022-10-26T16:57:59.648Z,13.30
2022-10-26T17:26:24.045Z,12.83
2022-10-26T17:29:30.724Z,12.79
2022-10-26T18:22:00.660Z,12.72
2022-10-26T18:25:27.772Z,12.48
2022-10-26T19:09:47.763Z,11.55
2022-10-26T19:13:31.871Z,11.49
2022-10-26T19:16:47.357Z,11.44
2022-10-26T19:23:23.388Z,11.37
2022-10-26T19:26:19.611Z,11.30
2022-10-26T19:29:57.016Z,11.23
2022-10-26T19:32:44.209Z,11.20
2022-10-26T19:35:17.280Z,11.19
2022-10-26T19:37:52.582Z,11.18
2022-10-26T19:40:28.058Z,11.16
2022-10-26T19:43:12.309Z,11.14
2022-10-26T19:46:09.513Z,11.11
2022-10-26T19:49:33.592Z,11.08
2022-10-26T19:52:14.267Z,11.03
2022-10-26T19:54:55.668Z,11.01
2022-10-26T19:57:46.526Z,11.01
2022-10-26T20:04:05.773Z,10.90
2022-10-26T20:10:35.067Z,10.84
2022-10-26T20:21:41.080Z,10.69
2022-10-26T20:28:39.432Z,10.68
2022-10-26T20:32:26.691Z,10.65
2022-10-26T20:40:04.540Z,10.52
2022-10-26T21:51:46.250Z,11.84
